Time;durP1;ratioP1;P1;durP2;ratioP2;P2;SDS_P1;SDS_P2;PMS_P1;PMS_P2;Temp;Humidity;BMP_temperature;BMP_pressure;BME280_temperature;BME280_humidity;BME280_pressure;Samples;Min_cycle;Max_cycle;Signal;HPM_P1;HPM_P2
2023/06/27 00:00:21;;;;;;;5.80;4.50;;;;;;;21.88;53.58;100009.12;108022;1277;21993;-61
2023/06/27 00:02:47;;;;;;;5.80;4.50;;;;;;;21.93;53.64;100006.28;108039;1274;21995;-66
2023/06/27 00:05:13;;;;;;;6.50;4.80;;;;;;;21.95;53.61;100006.27;108036;1285;21984;-61
2023/06/27 00:07:40;;;;;;;7.00;4.90;;;;;;;21.97;53.74;100003.13;108095;1285;21987;-67
2023/06/27 00:10:07;;;;;;;5.90;4.60;;;;;;;21.99;53.69;100002.46;108072;1277;21994;-67
2023/06/27 00:12:33;;;;;;;5.70;4.70;;;;;;;22.01;53.75;100004.01;108111;1280;23051;-67
2023/06/27 00:14:58;;;;;;;5.00;4.00;;;;;;;21.98;53.78;100006.85;108066;1280;21987;-67
2023/06/27 00:17:24;;;;;;;5.90;4.20;;;;;;;21.95;53.77;100004.90;108048;1276;22057;-66
2023/06/27 00:19:50;;;;;;;8.80;4.20;;;;;;;21.92;53.75;100007.73;108026;1283;21993;-67
2023/06/27 00:22:15;;;;;;;6.20;4.50;;;;;;;21.90;53.85;100006.14;108075;1285;21994;-61
2023/06/27 00:24:41;;;;;;;7.30;4.60;;;;;;;21.86;53.83;100007.63;108038;1285;21996;-61
2023/06/27 00:27:07;;;;;;;6.30;4.40;;;;;;;21.82;53.76;100002.35;108047;1280;23806;-67
2023/06/27 00:29:33;;;;;;;8.30;3.90;;;;;;;21.81;53.84;100000.27;108061;1285;22019;-61
2023/06/27 00:31:58;;;;;;;6.30;5.00;;;;;;;21.83;54.02;99999.98;108075;1285;21987;-61
2023/06/27 00:34:24;;;;;;;6.20;4.20;;;;;;;21.85;54.03;99997.69;108047;1277;21993;-61
2023/06/27 00:36:50;;;;;;;7.00;3.90;;;;;;;21.86;53.97;99995.33;108181;1282;21997;-61
2023/06/27 00:39:15;;;;;;;11.30;4.10;;;;;;;21.84;53.97;99994.70;108075;1277;22003;-61
2023/06/27 00:41:42;;;;;;;5.60;3.90;;;;;;;21.82;54.03;99995.41;108057;1285;21987;-61
2023/06/27 00:44:08;;;;;;;8.00;4.20;;;;;;;21.81;54.21;99998.45;108073;1280;21987;-67
2023/06/27 00:46:38;;;;;;;6.60;3.80;;;;;;;21.83;54.28;100002.95;108130;1277;21987;-67
2023/06/27 00:49:06;;;;;;;5.40;3.70;;;;;;;21.83;54.25;100003.87;108069;1285;21993;-67
2023/06/27 00:51:33;;;;;;;5.40;4.20;;;;;;;21.81;54.33;100001.55;108112;1285;22044;-66
2023/06/27 00:53:59;;;;;;;11.70;4.40;;;;;;;21.77;54.38;99999.08;108059;1280;22024;-61
2023/06/27 00:56:26;;;;;;;8.60;4.30;;;;;;;21.75;54.45;99996.57;108063;1285;21987;-67
2023/06/27 00:58:53;;;;;;;5.30;4.00;;;;;;;21.73;54.45;99993.49;108171;1280;21988;-67
2023/06/27 01:01:19;;;;;;;5.10;3.90;;;;;;;21.70;54.63;99991.15;108079;1277;21992;-61
2023/06/27 01:03:45;;;;;;;6.80;4.10;;;;;;;21.65;54.72;99990.05;108122;1284;22075;-67
2023/06/27 01:06:15;;;;;;;7.50;4.40;;;;;;;21.62;54.73;99993.27;108158;1285;21989;-61
2023/06/27 01:08:42;;;;;;;;;;;;;;;21.61;55.00;99990.85;108191;1280;22460;-63
2023/06/27 01:11:15;;;;;;;5.40;4.30;;;;;;;21.59;55.13;99987.73;108847;1284;22036;-67
2023/06/27 01:13:51;;;;;;;7.30;4.20;;;;;;;21.57;55.31;99986.27;108177;1274;21986;-67
2023/06/27 01:16:19;;;;;;;9.30;4.20;;;;;;;21.53;56.33;99989.90;108064;1280;22570;-60
2023/06/27 01:18:45;;;;;;;5.70;3.70;;;;;;;21.51;55.66;99989.50;108253;1284;21989;-60
2023/06/27 01:21:10;;;;;;;6.90;4.20;;;;;;;21.50;55.58;99984.38;108158;1280;22150;-61
2023/06/27 01:23:53;;;;;;;5.90;3.70;;;;;;;21.50;55.52;99983.69;108161;1283;22024;-61
2023/06/27 01:26:18;;;;;;;5.40;3.60;;;;;;;21.50;55.59;99982.79;108224;1277;22631;-61
2023/06/27 01:28:44;;;;;;;5.50;4.40;;;;;;;21.50;55.47;99980.59;108335;1284;21982;-66
2023/06/27 01:31:14;;;;;;;11.20;3.70;;;;;;;21.53;55.35;99980.45;108067;1285;22022;-67
2023/06/27 01:34:18;;;;;;;5.20;3.70;;;;;;;21.53;55.33;99981.29;108242;1277;21993;-61
2023/06/27 01:37:09;;;;;;;6.80;3.80;;;;;;;21.53;55.25;99984.17;108215;1284;21980;-67
2023/06/27 01:39:47;;;;;;;6.80;3.40;;;;;;;21.54;55.20;99986.80;108201;1280;21991;-60
2023/06/27 01:42:17;;;;;;;5.90;3.10;;;;;;;21.55;55.03;99980.48;108213;1280;21961;-61
2023/06/27 01:44:46;;;;;;;5.70;3.10;;;;;;;21.56;55.04;99978.83;108178;1284;21984;-62
2023/06/27 01:47:13;;;;;;;7.80;3.40;;;;;;;21.56;55.04;99977.58;108173;1284;21977;-61
2023/06/27 01:49:39;;;;;;;7.60;2.90;;;;;;;21.56;54.97;99979.16;108287;1280;21983;-67
2023/06/27 01:52:06;;;;;;;3.80;2.80;;;;;;;21.56;54.97;99981.15;108123;1283;21989;-66
2023/06/27 01:54:32;;;;;;;5.40;2.70;;;;;;;21.57;55.06;99978.23;108187;1280;21986;-61
2023/06/27 01:56:58;;;;;;;7.10;3.30;;;;;;;21.59;54.97;99983.98;108183;1281;21988;-66
2023/06/27 01:59:23;;;;;;;7.50;3.70;;;;;;;21.61;54.95;99987.61;108185;1284;21976;-61
2023/06/27 02:01:49;;;;;;;7.40;2.80;;;;;;;21.62;54.86;99979.91;108215;1280;22046;-61
2023/06/27 02:04:14;;;;;;;5.40;2.90;;;;;;;21.61;54.81;99981.88;108204;1280;22040;-61
2023/06/27 02:06:40;;;;;;;10.50;2.90;;;;;;;21.61;54.60;99982.78;108241;1277;21989;-67
2023/06/27 02:09:07;;;;;;;4.60;2.90;;;;;;;21.62;54.72;99983.08;108258;1284;21987;-61
2023/06/27 02:11:32;;;;;;;4.70;3.00;;;;;;;21.60;54.66;99982.83;108195;1284;22026;-66
2023/06/27 02:13:58;;;;;;;5.90;3.10;;;;;;;21.56;54.52;99983.48;108223;1280;22023;-67
2023/06/27 02:16:23;;;;;;;6.00;2.80;;;;;;;21.52;54.75;99983.17;108232;1277;21986;-60
2023/06/27 02:18:49;;;;;;;6.00;3.00;;;;;;;21.47;54.88;99984.00;108297;1284;21986;-61
2023/06/27 02:21:15;;;;;;;7.90;3.00;;;;;;;21.44;54.82;99984.07;108229;1284;21983;-66
2023/06/27 02:23:40;;;;;;;5.20;3.00;;;;;;;21.40;54.84;99984.13;108225;1277;21993;-67
2023/06/27 02:26:06;;;;;;;4.80;2.60;;;;;;;21.36;54.76;99987.91;108261;1284;22465;-61
2023/06/27 02:28:31;;;;;;;5.30;2.90;;;;;;;21.33;54.96;99987.58;108231;1284;22020;-61
2023/06/27 02:30:57;;;;;;;7.70;3.50;;;;;;;21.31;54.93;99988.61;108242;1284;21988;-61
2023/06/27 02:33:23;;;;;;;4.30;2.50;;;;;;;21.30;55.12;99993.13;108191;1284;22008;-66
2023/06/27 02:35:49;;;;;;;7.50;3.60;;;;;;;21.31;55.23;99995.24;108223;1282;21992;-61
2023/06/27 02:38:14;;;;;;;4.70;2.90;;;;;;;21.34;55.30;99998.21;108195;1285;21992;-61
2023/06/27 02:40:40;;;;;;;5.50;2.90;;;;;;;21.40;55.47;99997.33;108205;1277;22016;-67
2023/06/27 02:43:06;;;;;;;7.30;3.20;;;;;;;21.44;55.59;99997.06;108185;1280;22489;-62
2023/06/27 02:45:31;;;;;;;7.50;2.90;;;;;;;21.48;55.67;99998.08;108158;1281;21985;-62
2023/06/27 02:47:57;;;;;;;5.50;3.20;;;;;;;21.51;55.83;99999.45;108167;1282;21991;-66
2023/06/27 02:50:23;;;;;;;6.60;3.40;;;;;;;21.56;56.17;99999.88;108143;1284;21983;-61
2023/06/27 02:52:48;;;;;;;5.50;2.90;;;;;;;21.59;56.12;99999.66;108167;1278;22156;-61
2023/06/27 02:55:14;;;;;;;11.50;3.30;;;;;;;21.62;55.97;100003.60;108194;1284;21989;-60
2023/06/27 02:57:40;;;;;;;6.70;2.80;;;;;;;21.67;55.94;100005.82;108199;1280;21991;-61
2023/06/27 03:00:06;;;;;;;5.20;2.70;;;;;;;21.71;55.86;100005.94;108205;1274;21989;-61
2023/06/27 03:02:32;;;;;;;10.10;3.00;;;;;;;21.75;55.74;100006.04;108321;1281;21991;-66
2023/06/27 03:04:58;;;;;;;5.20;2.80;;;;;;;21.77;55.72;100002.64;108238;1283;21997;-60
2023/06/27 03:07:23;;;;;;;6.50;3.10;;;;;;;21.80;55.78;100001.40;108120;1274;22149;-60
2023/06/27 03:09:49;;;;;;;6.10;3.00;;;;;;;21.82;55.69;100002.15;108109;1285;22491;-60
2023/06/27 03:12:15;;;;;;;12.20;3.50;;;;;;;21.86;55.92;100000.48;108127;1278;22299;-66
2023/06/27 03:14:40;;;;;;;8.70;3.40;;;;;;;21.89;56.03;99996.86;108092;1280;21986;-67
2023/06/27 03:17:06;;;;;;;5.40;3.20;;;;;;;21.92;56.20;99996.52;108042;1280;21989;-66
2023/06/27 03:19:32;;;;;;;8.50;3.90;;;;;;;21.96;56.15;99994.64;108060;1285;21998;-59
2023/06/27 03:21:57;;;;;;;6.00;3.60;;;;;;;22.01;56.32;99991.45;108102;1280;21988;-66
2023/06/27 03:24:23;;;;;;;6.60;3.30;;;;;;;22.07;56.49;99989.84;108064;1283;21983;-60
2023/06/27 03:26:48;;;;;;;4.20;2.90;;;;;;;22.12;56.22;99990.71;108120;1277;21991;-65
2023/06/27 03:29:14;;;;;;;7.80;3.20;;;;;;;22.17;56.37;99992.22;108163;1277;21989;-61
2023/06/27 03:31:40;;;;;;;8.30;3.50;;;;;;;22.21;56.46;99992.10;108069;1285;21987;-59
2023/06/27 03:34:05;;;;;;;9.80;3.80;;;;;;;22.26;56.59;99995.33;108087;1280;21987;-60
2023/06/27 03:36:34;;;;;;;5.50;3.50;;;;;;;22.32;56.62;99995.98;108109;1277;21951;-60
2023/06/27 03:39:00;;;;;;;12.70;3.60;;;;;;;22.41;56.82;99996.49;108098;1285;21987;-65
2023/06/27 03:41:26;;;;;;;9.40;3.90;;;;;;;22.49;56.75;99995.06;108101;1277;21988;-66
2023/06/27 03:43:52;;;;;;;9.00;3.50;;;;;;;22.58;56.62;99995.37;108076;1275;21999;-60
2023/06/27 03:46:18;;;;;;;6.40;3.50;;;;;;;22.67;56.75;99994.58;108130;1285;22021;-59
2023/06/27 03:48:43;;;;;;;7.60;3.50;;;;;;;22.78;56.77;99993.29;108102;1280;21992;-66
2023/06/27 03:51:09;;;;;;;7.20;3.50;;;;;;;22.88;56.71;99990.42;108174;1284;21995;-60
2023/06/27 03:53:35;;;;;;;10.00;3.80;;;;;;;23.00;56.75;99989.07;108087;1285;22029;-65
2023/06/27 03:56:01;;;;;;;6.50;3.80;;;;;;;23.12;56.95;99985.54;108086;1274;22021;-59
2023/06/27 03:58:28;;;;;;;7.20;3.70;;;;;;;23.24;56.91;99985.10;108124;1285;21989;-60
2023/06/27 04:00:54;;;;;;;6.00;3.60;;;;;;;23.36;56.95;99985.70;108100;1285;21992;-60
2023/06/27 04:03:20;;;;;;;7.60;3.80;;;;;;;23.48;56.65;99985.53;108076;1280;21989;-60
2023/06/27 04:05:46;;;;;;;6.00;3.90;;;;;;;23.59;56.83;99983.63;108109;1283;21989;-66
2023/06/27 04:08:11;;;;;;;7.40;3.80;;;;;;;23.73;56.61;99985.88;108096;1285;21992;-60
2023/06/27 04:10:37;;;;;;;7.90;4.50;;;;;;;23.85;56.42;99987.11;108066;1285;22003;-65
2023/06/27 04:13:03;;;;;;;8.80;4.20;;;;;;;23.99;56.26;99983.42;108089;1280;21992;-60
2023/06/27 04:15:29;;;;;;;6.30;4.00;;;;;;;24.13;56.21;99980.77;108133;1275;22081;-59
2023/06/27 04:17:55;;;;;;;8.20;3.60;;;;;;;24.27;55.98;99978.27;108083;1285;22236;-66
2023/06/27 04:20:20;;;;;;;8.80;4.10;;;;;;;24.40;55.94;99978.16;108088;1280;21991;-61
2023/06/27 04:22:46;;;;;;;9.30;4.00;;;;;;;24.53;55.64;99974.67;108071;1279;21994;-66
2023/06/27 04:25:13;;;;;;;5.50;3.40;;;;;;;24.67;55.47;99979.39;108071;1284;21988;-67
2023/06/27 04:27:38;;;;;;;9.90;3.40;;;;;;;24.81;55.41;99979.19;108096;1285;21986;-66
2023/06/27 04:30:05;;;;;;;8.00;3.20;;;;;;;24.95;54.76;99977.38;108057;1285;21994;-60
2023/06/27 04:32:34;;;;;;;6.50;4.50;;;;;;;25.06;54.23;99984.02;108120;1285;21974;-67
2023/06/27 04:35:01;;;;;;;5.80;3.60;;;;;;;25.19;54.32;99986.77;108107;1285;21966;-66
2023/06/27 04:37:28;;;;;;;6.10;3.00;;;;;;;25.34;54.55;99988.45;108080;1285;21986;-66
2023/06/27 04:39:54;;;;;;;6.10;3.20;;;;;;;25.51;54.44;99990.91;108095;1285;22023;-60
2023/06/27 04:42:20;;;;;;;6.80;3.10;;;;;;;25.67;53.95;99994.28;108086;1285;21995;-66
2023/06/27 04:44:45;;;;;;;8.60;4.70;;;;;;;25.83;54.00;99992.45;108121;1285;21982;-61
2023/06/27 04:47:11;;;;;;;6.30;3.90;;;;;;;25.98;53.64;99992.63;108217;1285;21989;-67
2023/06/27 04:49:36;;;;;;;9.00;3.70;;;;;;;26.13;53.20;99992.85;108101;1285;21988;-61
2023/06/27 04:52:03;;;;;;;7.40;3.90;;;;;;;26.27;52.80;99992.98;108071;1278;22456;-66
2023/06/27 04:54:29;;;;;;;9.10;4.60;;;;;;;26.38;52.25;99996.55;108085;1285;21993;-61
2023/06/27 04:56:54;;;;;;;5.30;3.80;;;;;;;26.47;51.88;99996.48;108061;1280;21987;-61
2023/06/27 04:59:20;;;;;;;7.20;4.00;;;;;;;26.64;51.69;99994.85;108104;1285;21980;-61
2023/06/27 05:01:46;;;;;;;11.60;4.80;;;;;;;26.80;51.00;99993.89;108127;1285;21992;-61
2023/06/27 05:04:12;;;;;;;20.30;7.80;;;;;;;26.90;50.37;99994.29;108062;1285;21987;-61
2023/06/27 05:06:38;;;;;;;21.00;10.00;;;;;;;26.99;50.29;99992.99;108156;1285;21987;-66
2023/06/27 05:09:03;;;;;;;26.30;10.70;;;;;;;27.10;50.37;99990.61;108123;1280;21986;-61
2023/06/27 05:11:32;;;;;;;68.60;17.90;;;;;;;27.24;50.28;99983.43;108160;1284;22007;-61
2023/06/27 05:13:58;;;;;;;16.60;6.30;;;;;;;27.42;49.63;99983.60;108131;1285;22003;-66
2023/06/27 05:16:26;;;;;;;66.50;22.10;;;;;;;27.56;49.52;99976.95;108189;1280;21992;-62
2023/06/27 05:18:52;;;;;;;22.50;10.60;;;;;;;27.76;49.66;99979.46;108115;1285;22019;-62
2023/06/27 05:21:18;;;;;;;51.00;18.30;;;;;;;28.00;49.60;99980.02;108095;1286;21987;-61
2023/06/27 05:23:43;;;;;;;87.40;28.80;;;;;;;28.24;48.90;99976.08;108106;1277;21986;-62
2023/06/27 05:26:09;;;;;;;140.20;43.70;;;;;;;28.40;48.00;99973.27;108143;1285;21989;-62
2023/06/27 05:28:35;;;;;;;56.90;18.80;;;;;;;28.51;47.21;99974.40;108097;1285;21987;-67
2023/06/27 05:31:01;;;;;;;133.10;37.40;;;;;;;28.59;46.78;99969.91;108110;1285;21992;-62
2023/06/27 05:33:26;;;;;;;204.00;64.00;;;;;;;28.67;46.81;99968.64;108081;1286;24322;-62
2023/06/27 05:35:53;;;;;;;154.40;49.20;;;;;;;28.78;46.31;99966.83;108126;1285;21987;-62
2023/06/27 05:38:19;;;;;;;194.70;58.50;;;;;;;28.91;46.04;99969.21;108106;1285;21986;-67
2023/06/27 05:40:44;;;;;;;230.00;70.50;;;;;;;29.12;45.44;99967.45;108138;1277;21991;-68
2023/06/27 05:43:10;;;;;;;219.90;65.60;;;;;;;29.36;45.53;99968.48;108119;1281;22452;-67
2023/06/27 05:45:37;;;;;;;253.60;74.90;;;;;;;29.63;45.23;99968.75;108155;1285;23145;-67
2023/06/27 05:48:04;;;;;;;347.50;106.80;;;;;;;29.86;44.82;99970.13;108143;1280;21987;-67
2023/06/27 05:50:29;;;;;;;379.40;112.90;;;;;;;30.07;44.18;99972.90;108100;1280;22048;-67
2023/06/27 05:52:55;;;;;;;369.10;124.60;;;;;;;30.27;44.31;99968.59;108088;1285;22029;-64
2023/06/27 05:55:21;;;;;;;440.60;143.20;;;;;;;30.51;43.96;99969.56;108091;1285;22021;-67
2023/06/27 05:57:47;;;;;;;372.90;108.20;;;;;;;30.70;42.58;99971.98;108165;1285;21998;-63
2023/06/27 06:00:14;;;;;;;394.20;129.80;;;;;;;30.83;41.76;99970.64;108123;1279;22002;-68
2023/06/27 06:02:42;;;;;;;413.80;129.50;;;;;;;30.96;41.95;99970.92;108933;1285;21989;-62
2023/06/27 06:05:10;;;;;;;460.30;151.30;;;;;;;31.10;40.95;99969.44;108185;1280;21999;-68
2023/06/27 06:07:41;;;;;;;528.40;176.80;;;;;;;31.24;40.39;99967.48;108136;1285;22093;-63
2023/06/27 06:10:08;;;;;;;574.80;195.90;;;;;;;31.34;40.07;99963.69;108291;1285;21994;-67
2023/06/27 06:12:34;;;;;;;538.60;197.80;;;;;;;31.44;39.71;99964.64;108111;1283;21989;-67
2023/06/27 06:15:00;;;;;;;537.50;188.70;;;;;;;31.51;39.32;99965.70;108065;1280;21986;-63
2023/06/27 06:17:25;;;;;;;479.30;153.60;;;;;;;31.59;38.98;99967.77;108082;1286;21997;-67
2023/06/27 06:19:51;;;;;;;598.70;229.40;;;;;;;31.70;38.62;99966.89;108026;1285;22024;-67
2023/06/27 06:22:16;;;;;;;680.90;259.90;;;;;;;31.86;39.03;99962.64;108049;1285;21984;-66
2023/06/27 06:24:42;;;;;;;557.40;183.20;;;;;;;31.96;38.36;99962.81;108066;1280;21953;-66
2023/06/27 06:27:07;;;;;;;647.30;256.00;;;;;;;31.99;38.34;99966.33;108120;1285;21987;-67
2023/06/27 06:29:34;;;;;;;674.10;233.10;;;;;;;32.01;37.79;99966.12;108075;1286;22082;-66
2023/06/27 06:32:02;;;;;;;683.60;240.80;;;;;;;32.07;37.54;99967.45;108058;1278;22024;-63
2023/06/27 06:34:28;;;;;;;728.30;259.80;;;;;;;32.06;37.06;99966.80;108132;1281;22472;-63
2023/06/27 06:36:53;;;;;;;687.10;256.10;;;;;;;31.97;37.24;99967.82;108106;1285;21988;-63
2023/06/27 06:39:19;;;;;;;675.90;252.10;;;;;;;32.03;38.00;99968.27;108080;1283;22159;-63
2023/06/27 06:41:44;;;;;;;633.60;229.60;;;;;;;32.24;37.25;99968.85;108125;1285;21995;-62
2023/06/27 06:44:10;;;;;;;670.90;247.90;;;;;;;32.43;37.24;99966.95;108088;1285;21999;-68
2023/06/27 06:46:37;;;;;;;714.90;264.60;;;;;;;32.63;36.79;99965.54;108093;1285;21980;-63
2023/06/27 06:49:03;;;;;;;616.60;219.10;;;;;;;32.71;36.38;99964.76;108136;1284;22074;-67
2023/06/27 06:51:29;;;;;;;614.10;208.60;;;;;;;32.70;35.84;99964.49;108116;1286;21989;-62
2023/06/27 06:53:54;;;;;;;814.30;303.90;;;;;;;32.62;35.94;99962.36;108108;1285;21989;-63
2023/06/27 06:56:20;;;;;;;734.10;280.10;;;;;;;32.65;35.97;99959.97;108099;1285;22002;-68
2023/06/27 06:58:46;;;;;;;795.30;313.00;;;;;;;32.73;35.48;99959.58;108098;1285;21994;-68
2023/06/27 07:01:12;;;;;;;705.10;257.50;;;;;;;32.87;35.91;99958.23;108081;1285;22001;-63
2023/06/27 07:03:38;;;;;;;783.30;302.70;;;;;;;33.01;35.16;99958.81;108151;1285;21990;-62
2023/06/27 07:06:03;;;;;;;767.10;283.60;;;;;;;33.12;35.22;99958.73;108076;1280;21981;-67
2023/06/27 07:08:29;;;;;;;824.80;317.50;;;;;;;33.32;35.38;99957.66;108077;1285;21990;-68
2023/06/27 07:10:57;;;;;;;792.30;287.50;;;;;;;33.55;34.82;99954.41;108106;1285;21989;-68
2023/06/27 07:13:23;;;;;;;827.10;315.00;;;;;;;33.74;34.99;99952.76;108101;1285;21986;-68
2023/06/27 07:15:49;;;;;;;749.30;290.40;;;;;;;33.95;34.45;99950.98;108084;1278;21998;-68
2023/06/27 07:18:15;;;;;;;747.50;296.50;;;;;;;34.16;34.37;99952.30;108088;1286;21954;-68
2023/06/27 07:20:40;;;;;;;878.50;348.70;;;;;;;34.23;33.22;99956.77;108103;1285;21996;-63
2023/06/27 07:23:06;;;;;;;830.80;311.60;;;;;;;34.16;33.37;99961.27;108074;1284;22023;-67
2023/06/27 07:25:32;;;;;;;695.20;261.80;;;;;;;34.24;33.69;99962.26;108097;1283;23058;-66
2023/06/27 07:27:57;;;;;;;875.70;355.10;;;;;;;34.36;33.34;99962.91;108076;1281;21998;-62
2023/06/27 07:30:23;;;;;;;857.60;326.00;;;;;;;34.44;32.96;99959.90;108053;1285;21976;-66
2023/06/27 07:32:49;;;;;;;790.20;288.80;;;;;;;34.62;33.09;99961.23;108070;1285;22026;-67
2023/06/27 07:35:14;;;;;;;836.30;310.40;;;;;;;34.79;33.49;99959.39;108043;1285;181518;-68
2023/06/27 07:37:40;;;;;;;840.70;330.00;;;;;;;34.89;32.33;99959.86;108083;1285;21984;-67
2023/06/27 07:40:07;;;;;;;766.00;274.30;;;;;;;35.01;31.71;99959.33;108146;1285;21986;-62
2023/06/27 07:42:33;;;;;;;859.20;334.50;;;;;;;34.93;31.94;99963.65;108142;1286;21996;-67
2023/06/27 07:44:59;;;;;;;860.40;338.00;;;;;;;34.96;32.57;99960.98;108107;1285;21986;-67
2023/06/27 07:47:24;;;;;;;838.40;337.30;;;;;;;35.08;32.23;99961.70;108105;1285;21998;-67
2023/06/27 07:49:50;;;;;;;721.10;272.20;;;;;;;35.25;31.96;99966.67;108075;1277;21989;-67
2023/06/27 07:52:16;;;;;;;779.10;295.50;;;;;;;35.33;31.84;99965.59;108094;1283;22018;-67
2023/06/27 07:54:42;;;;;;;888.00;350.90;;;;;;;35.37;31.04;99966.44;108115;1284;22021;-63
2023/06/27 07:57:08;;;;;;;868.80;321.20;;;;;;;35.54;30.83;99966.91;108098;1280;22026;-67
2023/06/27 07:59:33;;;;;;;825.30;323.80;;;;;;;35.76;30.79;99961.92;108219;1280;21987;-63
2023/06/27 08:01:59;;;;;;;859.80;325.90;;;;;;;35.89;31.01;99960.08;108152;1284;21990;-64
2023/06/27 08:04:24;;;;;;;910.40;357.20;;;;;;;35.97;31.06;99959.12;108122;1284;22003;-67
2023/06/27 08:06:50;;;;;;;847.60;324.40;;;;;;;36.06;30.20;99965.06;108224;1277;21987;-63
2023/06/27 08:09:16;;;;;;;850.20;331.50;;;;;;;36.13;29.53;99959.36;108148;1283;21986;-68
2023/06/27 08:11:42;;;;;;;892.90;338.90;;;;;;;36.20;29.25;99958.07;108179;1284;22045;-68
2023/06/27 08:14:08;;;;;;;898.70;328.80;;;;;;;36.29;29.77;99958.69;108140;1285;22175;-63
2023/06/27 08:16:34;;;;;;;893.10;335.70;;;;;;;36.28;27.93;99946.84;108131;1285;21991;-69
2023/06/27 08:19:02;;;;;;;834.90;327.50;;;;;;;36.04;27.37;99952.21;108085;1285;21994;-62
2023/06/27 08:21:28;;;;;;;848.80;346.80;;;;;;;35.98;27.39;99952.91;108124;1278;21982;-62
2023/06/27 08:23:54;;;;;;;925.90;361.80;;;;;;;35.99;27.42;99951.86;108108;1285;21976;-63
2023/06/27 08:26:21;;;;;;;951.90;381.00;;;;;;;36.05;27.96;99952.79;108153;1281;22046;-62
2023/06/27 08:28:47;;;;;;;944.70;358.20;;;;;;;36.09;28.09;99951.36;108119;1284;22025;-62
2023/06/27 08:31:13;;;;;;;824.40;291.20;;;;;;;36.20;28.02;99944.80;108145;1285;21974;-68
2023/06/27 08:33:40;;;;;;;832.70;296.50;;;;;;;36.28;27.58;99949.32;108147;1278;21974;-68
2023/06/27 08:36:06;;;;;;;883.90;319.30;;;;;;;36.40;28.14;99953.96;108221;1277;21987;-62
2023/06/27 08:38:34;;;;;;;829.40;329.10;;;;;;;36.52;27.28;99950.45;108351;1285;21990;-68
2023/06/27 08:41:01;;;;;;;903.40;365.40;;;;;;;36.65;26.87;99944.34;108245;1284;22426;-69
2023/06/27 08:43:27;;;;;;;925.20;363.70;;;;;;;36.75;26.29;99942.01;108441;1285;23078;-62
2023/06/27 08:45:57;;;;;;;789.20;261.30;;;;;;;36.88;26.22;99941.73;108466;1284;21984;-62
2023/06/27 08:48:23;;;;;;;818.10;286.10;;;;;;;37.01;26.45;99939.34;108149;1284;21985;-69
2023/06/27 08:50:51;;;;;;;891.80;325.70;;;;;;;37.13;26.24;99939.59;108152;1282;21983;-69
2023/06/27 08:53:17;;;;;;;1007.40;405.10;;;;;;;37.23;26.35;99943.73;108032;1285;21986;-61
2023/06/27 08:55:52;;;;;;;946.30;348.00;;;;;;;37.30;26.19;99945.58;107976;1280;21983;-68
2023/06/27 08:58:18;;;;;;;864.00;291.20;;;;;;;37.35;26.86;99942.52;108097;1285;21993;-62
2023/06/27 09:00:45;;;;;;;897.60;354.30;;;;;;;37.49;26.78;99939.59;108135;1285;22037;-62
2023/06/27 09:03:10;;;;;;;945.80;349.30;;;;;;;37.56;25.45;99935.34;108049;1285;21985;-62
2023/06/27 09:05:36;;;;;;;1005.10;400.40;;;;;;;37.59;25.15;99938.20;108159;1286;21995;-66
2023/06/27 09:08:02;;;;;;;1034.90;389.40;;;;;;;37.62;25.33;99933.70;108147;1284;22459;-62
2023/06/27 09:10:27;;;;;;;957.30;337.70;;;;;;;37.68;25.76;99931.27;108150;1284;22457;-67
2023/06/27 09:12:56;;;;;;;989.70;383.40;;;;;;;37.82;25.47;99926.67;108256;1284;21989;-68
2023/06/27 09:15:22;;;;;;;964.00;350.90;;;;;;;38.05;26.10;99928.53;108200;1284;21987;-68
2023/06/27 09:17:49;;;;;;;1056.20;418.70;;;;;;;38.25;26.44;99924.20;108185;1283;21998;-66
2023/06/27 09:20:17;;;;;;;1092.60;433.50;;;;;;;38.44;26.32;99926.24;108469;1277;21983;-68
2023/06/27 09:22:43;;;;;;;929.50;345.10;;;;;;;38.47;25.84;99928.14;108680;1284;21966;-62
2023/06/27 09:25:21;;;;;;;1027.00;375.40;;;;;;;38.54;26.01;99929.87;108430;1284;21980;-62
2023/06/27 09:27:47;;;;;;;1017.90;373.60;;;;;;;38.48;25.82;99928.56;108219;1280;22023;-63
2023/06/27 09:30:13;;;;;;;1020.90;393.20;;;;;;;38.44;26.03;99931.36;108263;1285;21978;-69
2023/06/27 09:32:54;;;;;;;1006.60;375.30;;;;;;;38.44;25.71;99932.46;108440;1285;21958;-69
2023/06/27 09:35:21;;;;;;;980.20;351.60;;;;;;;38.54;25.71;99934.64;108433;1285;21985;-68
2023/06/27 09:37:48;;;;;;;984.80;382.30;;;;;;;38.76;25.64;99934.04;109509;1280;21983;-69
2023/06/27 09:40:22;;;;;;;962.60;350.60;;;;;;;38.84;25.38;99932.60;108288;1278;21984;-68
2023/06/27 09:42:52;;;;;;;893.90;301.50;;;;;;;38.92;24.88;99929.79;110048;1282;21991;-70
2023/06/27 09:45:19;;;;;;;1013.80;409.70;;;;;;;38.97;24.61;99936.84;108138;1285;21984;-62
2023/06/27 09:47:48;;;;;;;1096.60;411.70;;;;;;;38.87;24.57;99936.18;108056;1285;22017;-62
2023/06/27 09:50:14;;;;;;;1073.10;372.10;;;;;;;38.76;23.53;99935.40;108138;1285;21987;-63
2023/06/27 09:52:40;;;;;;;997.10;377.70;;;;;;;38.76;24.86;99938.45;108140;1284;22143;-69
2023/06/27 09:55:26;;;;;;;1030.00;379.80;;;;;;;38.89;24.57;99932.67;108189;1284;21950;-61
2023/06/27 09:57:52;;;;;;;1106.50;410.60;;;;;;;39.04;24.64;99931.05;108192;1284;23763;-69
2023/06/27 10:00:22;;;;;;;1021.40;361.50;;;;;;;39.26;24.68;99931.02;108125;1284;21982;-62
2023/06/27 10:02:48;;;;;;;1087.70;428.80;;;;;;;39.43;24.36;99930.65;108208;1284;22474;-69
2023/06/27 10:05:15;;;;;;;1107.60;406.40;;;;;;;39.47;23.72;99932.58;108370;1285;22043;-66
2023/06/27 10:07:44;;;;;;;1144.30;455.10;;;;;;;39.55;24.23;99929.81;108211;1281;22453;-69
2023/06/27 10:10:11;;;;;;;1085.40;401.30;;;;;;;39.70;23.85;99926.95;108200;1285;21984;-69
2023/06/27 10:12:37;;;;;;;1030.50;387.00;;;;;;;39.73;23.11;99930.33;108281;1284;21971;-62
2023/06/27 10:15:04;;;;;;;1134.70;414.30;;;;;;;39.63;23.80;99928.60;108276;1284;22025;-69
2023/06/27 10:17:30;;;;;;;1113.60;427.00;;;;;;;39.50;23.76;99930.23;108258;1285;22100;-71
2023/06/27 10:19:56;;;;;;;1106.00;395.70;;;;;;;39.29;23.99;99928.20;108158;1285;24040;-62
2023/06/27 10:22:26;;;;;;;1182.60;441.40;;;;;;;39.11;23.98;99917.70;108201;1285;22066;-69
2023/06/27 10:24:51;;;;;;;1081.00;416.90;;;;;;;39.14;24.22;99915.61;108252;1284;23618;-62
2023/06/27 10:27:21;;;;;;;1082.90;390.40;;;;;;;39.30;23.81;99921.09;108164;1284;21989;-62
2023/06/27 10:29:47;;;;;;;1122.40;430.50;;;;;;;39.38;22.93;99922.29;108174;1284;21992;-62
2023/06/27 10:32:17;;;;;;;1091.90;410.50;;;;;;;39.52;23.27;99915.52;108197;1278;21982;-63
2023/06/27 10:34:42;;;;;;;1105.90;435.90;;;;;;;39.55;23.48;99918.87;108205;1285;21954;-69
2023/06/27 10:37:11;;;;;;;1076.70;408.30;;;;;;;39.39;23.55;99918.41;108232;1285;21992;-62
2023/06/27 10:39:38;;;;;;;1112.90;386.90;;;;;;;39.11;22.89;99914.52;108201;1285;21989;-69
2023/06/27 10:42:31;;;;;;;1107.60;431.60;;;;;;;39.00;23.14;99914.23;108183;1284;22006;-70
2023/06/27 10:45:12;;;;;;;1054.80;359.90;;;;;;;39.05;23.61;99917.21;108197;1285;21991;-70
2023/06/27 10:47:44;;;;;;;1116.00;410.10;;;;;;;39.15;23.53;99911.38;108200;1285;21984;-70
2023/06/27 10:50:14;;;;;;;1054.30;386.60;;;;;;;39.33;23.68;99915.40;108271;1283;23728;-62
2023/06/27 10:52:40;;;;;;;;;;;;;;;39.51;23.49;99913.06;108229;1284;21977;-62
2023/06/27 10:55:15;;;;;;;1021.90;381.00;;;;;;;39.70;23.48;99912.30;108193;1285;21985;-69
2023/06/27 10:57:45;;;;;;;1056.50;413.70;;;;;;;39.83;23.17;99908.87;108217;1284;22043;-61
2023/06/27 11:00:15;;;;;;;1098.60;424.20;;;;;;;39.86;23.22;99902.50;108234;1285;22080;-61
2023/06/27 11:02:44;;;;;;;1056.40;417.50;;;;;;;39.81;22.42;99902.73;108230;1278;21988;-62
2023/06/27 11:05:16;;;;;;;1113.70;432.20;;;;;;;39.70;23.09;99905.23;108187;1285;22021;-62